Main page
METAR-TAF:

METAR-TAF

Airports :

Hahn, Germany

Frankfurt–Hahn Airport

latitude: 49-57N, longitude: 007-16E, elevation: 491 m

Current weather observation

The report was made 20 minutes ago, at 23:50 UTC
Wind 6 kt from the East, varying between North/Northeast and East/Southeast
Temperature -5°C
Humidity 68%
Pressure 1017 hPa
Visibility 10 km or more
no clouds below 1500 m and no cumulonimbus

METAR: EDFH 222350Z 08006KT 030V120 CAVOK M05/M10 Q1017

Time: 01:10 (00:10 UTC)

Forecast

The report was made 1 hour and 10 minutes ago, at 23:00 UTC
Forecast valid from 23 at 00 UTC to 23 at 24 UTC
Wind 10 kt from the East
Visibility 10 km or more
no clouds below 1500 m and no cumulonimbus
Temporary
from 23 at 09 UTC to 23 at 19 UTC
Wind 15 kt from the East with gusts up to 25 kt

TAF: EDFH 222300Z 2300/2324 08010KT CAVOK TEMPO 2309/2319 08015G25KT

Weather observations and forecasts of more than 4000 airports (METAR and TAF reports).

The available stations are represented by yellow and red dots on the map.

Hover mouse over dot to see the name of the station.

Then click to see weather observations and forecasts.

To change the map : click on the green buttons with a black cross to zoom in, on the green button with a dash to zoom out, or on the green arrows for adjacent maps.


METAR-TAF: